sensor_id;sensor_type;location;lat;lon;timestamp;P1;durP1;ratioP1;P2;durP2;ratioP2
16450;SDS011;12243;42.708;23.310;2023-08-17T00:00:58;9.15;;;5.65;;
16450;SDS011;12243;42.708;23.310;2023-08-17T00:03:25;8.63;;;6.07;;
16450;SDS011;12243;42.708;23.310;2023-08-17T00:05:52;6.55;;;5.70;;
16450;SDS011;12243;42.708;23.310;2023-08-17T00:08:18;8.02;;;5.32;;
16450;SDS011;12243;42.708;23.310;2023-08-17T00:10:45;7.32;;;5.68;;
16450;SDS011;12243;42.708;23.310;2023-08-17T00:13:13;7.38;;;5.75;;
16450;SDS011;12243;42.708;23.310;2023-08-17T00:15:40;5.97;;;5.47;;
16450;SDS011;12243;42.708;23.310;2023-08-17T00:18:08;7.05;;;5.80;;
16450;SDS011;12243;42.708;23.310;2023-08-17T00:20:35;6.10;;;5.50;;
16450;SDS011;12243;42.708;23.310;2023-08-17T00:23:02;7.03;;;5.30;;
16450;SDS011;12243;42.708;23.310;2023-08-17T00:25:29;5.97;;;5.43;;
16450;SDS011;12243;42.708;23.310;2023-08-17T00:27:56;5.90;;;5.22;;
16450;SDS011;12243;42.708;23.310;2023-08-17T00:30:22;9.10;;;4.72;;
16450;SDS011;12243;42.708;23.310;2023-08-17T00:32:50;5.57;;;5.03;;
16450;SDS011;12243;42.708;23.310;2023-08-17T00:35:20;5.70;;;5.10;;
16450;SDS011;12243;42.708;23.310;2023-08-17T00:37:48;5.60;;;5.10;;
16450;SDS011;12243;42.708;23.310;2023-08-17T00:40:15;7.03;;;5.05;;
16450;SDS011;12243;42.708;23.310;2023-08-17T00:42:42;6.53;;;5.07;;
16450;SDS011;12243;42.708;23.310;2023-08-17T00:45:09;5.22;;;4.72;;
16450;SDS011;12243;42.708;23.310;2023-08-17T00:47:36;5.93;;;4.85;;
16450;SDS011;12243;42.708;23.310;2023-08-17T00:50:03;5.68;;;5.15;;
16450;SDS011;12243;42.708;23.310;2023-08-17T00:52:33;5.40;;;4.82;;
16450;SDS011;12243;42.708;23.310;2023-08-17T00:55:01;7.10;;;5.35;;
16450;SDS011;12243;42.708;23.310;2023-08-17T00:57:29;5.88;;;4.97;;
16450;SDS011;12243;42.708;23.310;2023-08-17T00:59:57;5.82;;;5.22;;
16450;SDS011;12243;42.708;23.310;2023-08-17T01:02:24;5.57;;;5.03;;
16450;SDS011;12243;42.708;23.310;2023-08-17T01:04:51;7.68;;;4.78;;
16450;SDS011;12243;42.708;23.310;2023-08-17T01:07:19;6.97;;;4.93;;
16450;SDS011;12243;42.708;23.310;2023-08-17T01:09:49;5.10;;;4.60;;
16450;SDS011;12243;42.708;23.310;2023-08-17T01:12:17;5.30;;;4.90;;
16450;SDS011;12243;42.708;23.310;2023-08-17T01:15:00;5.30;;;4.25;;
16450;SDS011;12243;42.708;23.310;2023-08-17T01:17:36;5.38;;;4.40;;
16450;SDS011;12243;42.708;23.310;2023-08-17T01:20:10;5.10;;;4.60;;
16450;SDS011;12243;42.708;23.310;2023-08-17T01:22:39;7.18;;;4.00;;
16450;SDS011;12243;42.708;23.310;2023-08-17T01:25:09;5.55;;;4.70;;
16450;SDS011;12243;42.708;23.310;2023-08-17T01:27:41;6.82;;;4.47;;
16450;SDS011;12243;42.708;23.310;2023-08-17T01:30:11;5.90;;;4.45;;
16450;SDS011;12243;42.708;23.310;2023-08-17T01:32:42;5.50;;;4.25;;
16450;SDS011;12243;42.708;23.310;2023-08-17T01:35:16;5.60;;;4.25;;
16450;SDS011;12243;42.708;23.310;2023-08-17T01:37:49;5.50;;;4.10;;
16450;SDS011;12243;42.708;23.310;2023-08-17T01:40:21;4.80;;;4.40;;
16450;SDS011;12243;42.708;23.310;2023-08-17T01:42:50;4.85;;;4.30;;
16450;SDS011;12243;42.708;23.310;2023-08-17T01:45:19;5.95;;;4.18;;
16450;SDS011;12243;42.708;23.310;2023-08-17T01:47:45;8.30;;;4.43;;
16450;SDS011;12243;42.708;23.310;2023-08-17T01:50:13;4.32;;;3.90;;
16450;SDS011;12243;42.708;23.310;2023-08-17T01:52:40;4.88;;;4.20;;
16450;SDS011;12243;42.708;23.310;2023-08-17T01:55:07;5.10;;;3.92;;
16450;SDS011;12243;42.708;23.310;2023-08-17T01:57:36;4.90;;;4.30;;
16450;SDS011;12243;42.708;23.310;2023-08-17T02:00:03;6.13;;;4.50;;
16450;SDS011;12243;42.708;23.310;2023-08-17T02:02:39;7.07;;;4.30;;
16450;SDS011;12243;42.708;23.310;2023-08-17T02:05:07;7.00;;;4.07;;
16450;SDS011;12243;42.708;23.310;2023-08-17T02:07:35;6.53;;;4.43;;
16450;SDS011;12243;42.708;23.310;2023-08-17T02:10:02;5.05;;;4.50;;
16450;SDS011;12243;42.708;23.310;2023-08-17T02:12:31;4.28;;;3.60;;
16450;SDS011;12243;42.708;23.310;2023-08-17T02:15:00;5.22;;;3.80;;
16450;SDS011;12243;42.708;23.310;2023-08-17T02:17:26;6.45;;;4.30;;
16450;SDS011;12243;42.708;23.310;2023-08-17T02:19:53;4.30;;;3.90;;
16450;SDS011;12243;42.708;23.310;2023-08-17T02:22:20;4.63;;;4.03;;
16450;SDS011;12243;42.708;23.310;2023-08-17T02:24:47;4.63;;;4.05;;
16450;SDS011;12243;42.708;23.310;2023-08-17T02:27:14;4.13;;;3.72;;
16450;SDS011;12243;42.708;23.310;2023-08-17T02:29:41;6.22;;;4.00;;
16450;SDS011;12243;42.708;23.310;2023-08-17T02:32:09;4.30;;;4.00;;
16450;SDS011;12243;42.708;23.310;2023-08-17T02:34:36;4.38;;;3.72;;
16450;SDS011;12243;42.708;23.310;2023-08-17T02:37:02;4.63;;;4.03;;
16450;SDS011;12243;42.708;23.310;2023-08-17T02:39:29;8.00;;;4.22;;
16450;SDS011;12243;42.708;23.310;2023-08-17T02:41:56;4.15;;;3.75;;
16450;SDS011;12243;42.708;23.310;2023-08-17T02:44:23;4.53;;;3.85;;
16450;SDS011;12243;42.708;23.310;2023-08-17T02:46:50;4.90;;;3.60;;
16450;SDS011;12243;42.708;23.310;2023-08-17T02:49:18;7.03;;;4.00;;
16450;SDS011;12243;42.708;23.310;2023-08-17T02:51:45;7.43;;;3.83;;
16450;SDS011;12243;42.708;23.310;2023-08-17T02:54:12;4.00;;;3.70;;
16450;SDS011;12243;42.708;23.310;2023-08-17T02:56:39;4.18;;;3.88;;
16450;SDS011;12243;42.708;23.310;2023-08-17T02:59:06;6.10;;;3.58;;
16450;SDS011;12243;42.708;23.310;2023-08-17T03:01:34;4.05;;;3.40;;
16450;SDS011;12243;42.708;23.310;2023-08-17T03:04:00;4.15;;;3.47;;
16450;SDS011;12243;42.708;23.310;2023-08-17T03:06:29;4.25;;;3.90;;
16450;SDS011;12243;42.708;23.310;2023-08-17T03:08:56;4.38;;;4.05;;
16450;SDS011;12243;42.708;23.310;2023-08-17T03:11:23;4.43;;;4.03;;
16450;SDS011;12243;42.708;23.310;2023-08-17T03:13:49;5.75;;;3.80;;
16450;SDS011;12243;42.708;23.310;2023-08-17T03:16:18;4.32;;;4.13;;
16450;SDS011;12243;42.708;23.310;2023-08-17T03:18:45;7.13;;;4.05;;
16450;SDS011;12243;42.708;23.310;2023-08-17T03:21:16;4.45;;;3.90;;
16450;SDS011;12243;42.708;23.310;2023-08-17T03:23:45;5.40;;;3.92;;
16450;SDS011;12243;42.708;23.310;2023-08-17T03:26:12;3.97;;;3.67;;
16450;SDS011;12243;42.708;23.310;2023-08-17T03:28:40;5.25;;;3.95;;
16450;SDS011;12243;42.708;23.310;2023-08-17T03:31:07;5.03;;;3.80;;
16450;SDS011;12243;42.708;23.310;2023-08-17T03:33:34;4.25;;;3.63;;
16450;SDS011;12243;42.708;23.310;2023-08-17T03:36:02;3.97;;;3.47;;
16450;SDS011;12243;42.708;23.310;2023-08-17T03:38:29;5.55;;;4.13;;
16450;SDS011;12243;42.708;23.310;2023-08-17T03:40:57;5.60;;;3.67;;
16450;SDS011;12243;42.708;23.310;2023-08-17T03:43:25;7.07;;;4.28;;
16450;SDS011;12243;42.708;23.310;2023-08-17T03:45:52;6.47;;;3.85;;
16450;SDS011;12243;42.708;23.310;2023-08-17T03:48:19;4.47;;;3.75;;
16450;SDS011;12243;42.708;23.310;2023-08-17T03:50:50;4.03;;;3.60;;
16450;SDS011;12243;42.708;23.310;2023-08-17T03:53:17;6.03;;;4.15;;
16450;SDS011;12243;42.708;23.310;2023-08-17T03:55:45;4.88;;;4.47;;
16450;SDS011;12243;42.708;23.310;2023-08-17T03:58:14;7.85;;;4.43;;
16450;SDS011;12243;42.708;23.310;2023-08-17T04:00:41;4.55;;;4.15;;
16450;SDS011;12243;42.708;23.310;2023-08-17T04:03:08;3.80;;;3.50;;
16450;SDS011;12243;42.708;23.310;2023-08-17T04:05:35;5.50;;;4.10;;
16450;SDS011;12243;42.708;23.310;2023-08-17T04:08:03;5.47;;;4.22;;
16450;SDS011;12243;42.708;23.310;2023-08-17T04:10:30;4.97;;;4.57;;
16450;SDS011;12243;42.708;23.310;2023-08-17T04:12:57;5.57;;;4.50;;
16450;SDS011;12243;42.708;23.310;2023-08-17T04:15:25;7.00;;;4.90;;
16450;SDS011;12243;42.708;23.310;2023-08-17T04:17:52;5.18;;;4.18;;
16450;SDS011;12243;42.708;23.310;2023-08-17T04:20:20;10.48;;;4.72;;
16450;SDS011;12243;42.708;23.310;2023-08-17T04:22:48;8.95;;;4.80;;
16450;SDS011;12243;42.708;23.310;2023-08-17T04:25:16;5.15;;;4.22;;
16450;SDS011;12243;42.708;23.310;2023-08-17T04:27:43;7.93;;;4.40;;
16450;SDS011;12243;42.708;23.310;2023-08-17T04:30:10;6.85;;;4.82;;
16450;SDS011;12243;42.708;23.310;2023-08-17T04:32:49;6.70;;;4.88;;
16450;SDS011;12243;42.708;23.310;2023-08-17T04:35:20;4.68;;;4.25;;
16450;SDS011;12243;42.708;23.310;2023-08-17T04:37:47;5.00;;;4.10;;
16450;SDS011;12243;42.708;23.310;2023-08-17T04:40:14;6.50;;;4.97;;
16450;SDS011;12243;42.708;23.310;2023-08-17T04:42:42;4.55;;;4.15;;
16450;SDS011;12243;42.708;23.310;2023-08-17T04:45:09;4.93;;;4.07;;
16450;SDS011;12243;42.708;23.310;2023-08-17T04:47:40;7.18;;;4.90;;
16450;SDS011;12243;42.708;23.310;2023-08-17T04:50:09;5.72;;;4.32;;
16450;SDS011;12243;42.708;23.310;2023-08-17T04:52:38;5.15;;;4.60;;
16450;SDS011;12243;42.708;23.310;2023-08-17T04:55:05;8.05;;;4.00;;
16450;SDS011;12243;42.708;23.310;2023-08-17T04:57:32;3.63;;;3.42;;
16450;SDS011;12243;42.708;23.310;2023-08-17T05:00:00;3.92;;;3.63;;
16450;SDS011;12243;42.708;23.310;2023-08-17T05:02:28;4.57;;;3.40;;
16450;SDS011;12243;42.708;23.310;2023-08-17T05:04:56;3.33;;;3.05;;
16450;SDS011;12243;42.708;23.310;2023-08-17T05:07:25;4.50;;;3.45;;
16450;SDS011;12243;42.708;23.310;2023-08-17T05:09:53;5.63;;;3.45;;
16450;SDS011;12243;42.708;23.310;2023-08-17T05:12:21;5.38;;;3.45;;
16450;SDS011;12243;42.708;23.310;2023-08-17T05:14:48;4.68;;;3.13;;
16450;SDS011;12243;42.708;23.310;2023-08-17T05:17:14;3.33;;;2.95;;
16450;SDS011;12243;42.708;23.310;2023-08-17T05:19:42;3.97;;;3.25;;
16450;SDS011;12243;42.708;23.310;2023-08-17T05:22:11;5.03;;;3.50;;
16450;SDS011;12243;42.708;23.310;2023-08-17T05:24:40;4.18;;;3.22;;
16450;SDS011;12243;42.708;23.310;2023-08-17T05:27:07;3.70;;;3.15;;
16450;SDS011;12243;42.708;23.310;2023-08-17T05:29:36;4.45;;;3.33;;
16450;SDS011;12243;42.708;23.310;2023-08-17T05:32:03;6.95;;;3.15;;
16450;SDS011;12243;42.708;23.310;2023-08-17T05:34:31;4.60;;;3.35;;
16450;SDS011;12243;42.708;23.310;2023-08-17T05:36:58;6.32;;;3.40;;
16450;SDS011;12243;42.708;23.310;2023-08-17T05:39:25;4.10;;;3.38;;
16450;SDS011;12243;42.708;23.310;2023-08-17T05:41:54;4.13;;;3.45;;
16450;SDS011;12243;42.708;23.310;2023-08-17T05:44:20;4.05;;;3.28;;
16450;SDS011;12243;42.708;23.310;2023-08-17T05:46:48;5.53;;;3.40;;
16450;SDS011;12243;42.708;23.310;2023-08-17T05:49:15;6.97;;;3.47;;
16450;SDS011;12243;42.708;23.310;2023-08-17T05:51:41;3.42;;;3.13;;
16450;SDS011;12243;42.708;23.310;2023-08-17T05:54:08;5.75;;;3.42;;
16450;SDS011;12243;42.708;23.310;2023-08-17T05:56:35;4.22;;;3.50;;
16450;SDS011;12243;42.708;23.310;2023-08-17T05:59:04;5.30;;;3.80;;
16450;SDS011;12243;42.708;23.310;2023-08-17T06:01:31;4.70;;;4.05;;
16450;SDS011;12243;42.708;23.310;2023-08-17T06:03:58;4.43;;;4.03;;
16450;SDS011;12243;42.708;23.310;2023-08-17T06:06:25;4.75;;;3.53;;
16450;SDS011;12243;42.708;23.310;2023-08-17T06:08:52;4.75;;;4.10;;
16450;SDS011;12243;42.708;23.310;2023-08-17T06:11:19;5.68;;;4.20;;
16450;SDS011;12243;42.708;23.310;2023-08-17T06:13:46;6.75;;;4.60;;
16450;SDS011;12243;42.708;23.310;2023-08-17T06:16:15;7.72;;;4.50;;
16450;SDS011;12243;42.708;23.310;2023-08-17T06:18:42;7.75;;;4.90;;
16450;SDS011;12243;42.708;23.310;2023-08-17T06:21:08;4.65;;;4.28;;
16450;SDS011;12243;42.708;23.310;2023-08-17T06:23:36;9.15;;;4.78;;
16450;SDS011;12243;42.708;23.310;2023-08-17T06:26:03;6.25;;;4.95;;
16450;SDS011;12243;42.708;23.310;2023-08-17T06:28:30;7.03;;;5.05;;
16450;SDS011;12243;42.708;23.310;2023-08-17T06:30:56;5.65;;;4.88;;
16450;SDS011;12243;42.708;23.310;2023-08-17T06:33:25;4.85;;;4.45;;
16450;SDS011;12243;42.708;23.310;2023-08-17T06:35:52;7.25;;;4.75;;
16450;SDS011;12243;42.708;23.310;2023-08-17T06:38:19;8.40;;;5.20;;
16450;SDS011;12243;42.708;23.310;2023-08-17T06:40:46;6.60;;;4.35;;
16450;SDS011;12243;42.708;23.310;2023-08-17T06:43:13;6.40;;;5.35;;
16450;SDS011;12243;42.708;23.310;2023-08-17T06:45:40;6.57;;;4.63;;
16450;SDS011;12243;42.708;23.310;2023-08-17T06:48:06;5.93;;;5.25;;
16450;SDS011;12243;42.708;23.310;2023-08-17T06:50:35;5.90;;;5.32;;
16450;SDS011;12243;42.708;23.310;2023-08-17T06:53:02;6.50;;;5.55;;
16450;SDS011;12243;42.708;23.310;2023-08-17T06:55:29;7.00;;;5.05;;
16450;SDS011;12243;42.708;23.310;2023-08-17T06:57:57;8.23;;;5.60;;
16450;SDS011;12243;42.708;23.310;2023-08-17T07:00:24;9.13;;;5.25;;
16450;SDS011;12243;42.708;23.310;2023-08-17T07:02:51;6.00;;;5.43;;
16450;SDS011;12243;42.708;23.310;2023-08-17T07:05:18;5.75;;;5.20;;
16450;SDS011;12243;42.708;23.310;2023-08-17T07:07:46;5.13;;;4.72;;
16450;SDS011;12243;42.708;23.310;2023-08-17T07:10:13;5.57;;;5.07;;
16450;SDS011;12243;42.708;23.310;2023-08-17T07:12:40;5.75;;;5.20;;
16450;SDS011;12243;42.708;23.310;2023-08-17T07:15:07;6.25;;;4.75;;
16450;SDS011;12243;42.708;23.310;2023-08-17T07:17:34;7.13;;;5.03;;
16450;SDS011;12243;42.708;23.310;2023-08-17T07:20:02;5.40;;;5.00;;
16450;SDS011;12243;42.708;23.310;2023-08-17T07:22:30;8.98;;;5.05;;
16450;SDS011;12243;42.708;23.310;2023-08-17T07:24:58;6.32;;;5.00;;
16450;SDS011;12243;42.708;23.310;2023-08-17T07:27:25;6.68;;;4.18;;
16450;SDS011;12243;42.708;23.310;2023-08-17T07:29:52;5.00;;;4.53;;
16450;SDS011;12243;42.708;23.310;2023-08-17T07:32:19;4.55;;;4.15;;
16450;SDS011;12243;42.708;23.310;2023-08-17T07:34:47;7.47;;;4.05;;
16450;SDS011;12243;42.708;23.310;2023-08-17T07:37:13;4.43;;;4.10;;
16450;SDS011;12243;42.708;23.310;2023-08-17T07:39:42;5.93;;;4.65;;
16450;SDS011;12243;42.708;23.310;2023-08-17T07:42:10;5.53;;;3.08;;
16450;SDS011;12243;42.708;23.310;2023-08-17T07:44:37;3.72;;;3.50;;
16450;SDS011;12243;42.708;23.310;2023-08-17T07:47:04;10.05;;;4.00;;
16450;SDS011;12243;42.708;23.310;2023-08-17T07:49:31;7.03;;;4.25;;
16450;SDS011;12243;42.708;23.310;2023-08-17T07:51:58;6.15;;;4.18;;
16450;SDS011;12243;42.708;23.310;2023-08-17T07:54:25;4.68;;;3.75;;
16450;SDS011;12243;42.708;23.310;2023-08-17T07:56:52;4.22;;;3.83;;
16450;SDS011;12243;42.708;23.310;2023-08-17T07:59:20;3.65;;;3.40;;
16450;SDS011;12243;42.708;23.310;2023-08-17T08:01:47;4.95;;;3.67;;
16450;SDS011;12243;42.708;23.310;2023-08-17T08:04:14;4.72;;;3.83;;
16450;SDS011;12243;42.708;23.310;2023-08-17T08:06:41;4.82;;;4.35;;
16450;SDS011;12243;42.708;23.310;2023-08-17T08:09:08;4.32;;;3.92;;
16450;SDS011;12243;42.708;23.310;2023-08-17T08:11:35;3.90;;;3.67;;
16450;SDS011;12243;42.708;23.310;2023-08-17T08:14:02;4.18;;;3.85;;
16450;SDS011;12243;42.708;23.310;2023-08-17T08:16:30;5.07;;;3.70;;
16450;SDS011;12243;42.708;23.310;2023-08-17T08:18:57;5.90;;;3.40;;
16450;SDS011;12243;42.708;23.310;2023-08-17T08:21:24;5.97;;;2.78;;
16450;SDS011;12243;42.708;23.310;2023-08-17T08:23:52;3.38;;;3.10;;
16450;SDS011;12243;42.708;23.310;2023-08-17T08:26:19;4.78;;;3.28;;
16450;SDS011;12243;42.708;23.310;2023-08-17T08:28:46;3.35;;;3.00;;
16450;SDS011;12243;42.708;23.310;2023-08-17T08:31:13;3.47;;;2.83;;
16450;SDS011;12243;42.708;23.310;2023-08-17T08:33:41;2.97;;;2.85;;
16450;SDS011;12243;42.708;23.310;2023-08-17T08:36:08;3.88;;;3.50;;
16450;SDS011;12243;42.708;23.310;2023-08-17T08:38:34;4.53;;;3.65;;
16450;SDS011;12243;42.708;23.310;2023-08-17T08:41:01;3.38;;;3.17;;
16450;SDS011;12243;42.708;23.310;2023-08-17T08:43:29;3.20;;;2.92;;
16450;SDS011;12243;42.708;23.310;2023-08-17T08:45:56;3.65;;;3.35;;
16450;SDS011;12243;42.708;23.310;2023-08-17T08:48:24;3.33;;;3.10;;
16450;SDS011;12243;42.708;23.310;2023-08-17T08:50:54;3.22;;;2.85;;
16450;SDS011;12243;42.708;23.310;2023-08-17T08:53:24;3.08;;;2.80;;
16450;SDS011;12243;42.708;23.310;2023-08-17T08:55:58;4.85;;;3.22;;
16450;SDS011;12243;42.708;23.310;2023-08-17T08:58:26;3.63;;;3.35;;
16450;SDS011;12243;42.708;23.310;2023-08-17T09:00:54;4.20;;;3.67;;
16450;SDS011;12243;42.708;23.310;2023-08-17T09:03:21;3.63;;;3.30;;
16450;SDS011;12243;42.708;23.310;2023-08-17T09:05:50;5.78;;;3.67;;
16450;SDS011;12243;42.708;23.310;2023-08-17T09:08:20;3.53;;;3.33;;
16450;SDS011;12243;42.708;23.310;2023-08-17T09:10:48;3.28;;;3.08;;
16450;SDS011;12243;42.708;23.310;2023-08-17T09:13:15;4.53;;;3.38;;
16450;SDS011;12243;42.708;23.310;2023-08-17T09:15:42;3.45;;;3.15;;
16450;SDS011;12243;42.708;23.310;2023-08-17T09:18:09;3.40;;;3.13;;
16450;SDS011;12243;42.708;23.310;2023-08-17T09:20:40;5.50;;;3.15;;
16450;SDS011;12243;42.708;23.310;2023-08-17T09:23:10;3.45;;;3.15;;
16450;SDS011;12243;42.708;23.310;2023-08-17T09:25:40;3.95;;;2.85;;
16450;SDS011;12243;42.708;23.310;2023-08-17T09:28:09;3.28;;;3.00;;
16450;SDS011;12243;42.708;23.310;2023-08-17T09:30:50;4.20;;;3.72;;
16450;SDS011;12243;42.708;23.310;2023-08-17T09:33:18;3.28;;;3.08;;
16450;SDS011;12243;42.708;23.310;2023-08-17T09:35:46;5.20;;;3.30;;
16450;SDS011;12243;42.708;23.310;2023-08-17T09:38:12;6.75;;;3.00;;
16450;SDS011;12243;42.708;23.310;2023-08-17T09:40:41;3.42;;;3.15;;
16450;SDS011;12243;42.708;23.310;2023-08-17T09:43:09;2.80;;;2.60;;
16450;SDS011;12243;42.708;23.310;2023-08-17T09:45:36;3.03;;;2.92;;
16450;SDS011;12243;42.708;23.310;2023-08-17T09:48:03;3.47;;;3.20;;
16450;SDS011;12243;42.708;23.310;2023-08-17T09:50:30;4.72;;;3.05;;
16450;SDS011;12243;42.708;23.310;2023-08-17T09:52:57;3.28;;;3.03;;
16450;SDS011;12243;42.708;23.310;2023-08-17T09:55:24;3.10;;;2.90;;
16450;SDS011;12243;42.708;23.310;2023-08-17T09:57:52;3.05;;;2.85;;
16450;SDS011;12243;42.708;23.310;2023-08-17T10:00:20;3.05;;;2.85;;
16450;SDS011;12243;42.708;23.310;2023-08-17T10:02:49;3.03;;;2.63;;
16450;SDS011;12243;42.708;23.310;2023-08-17T10:05:17;2.40;;;2.30;;
16450;SDS011;12243;42.708;23.310;2023-08-17T10:07:46;2.60;;;2.45;;
16450;SDS011;12243;42.708;23.310;2023-08-17T10:10:15;5.13;;;2.50;;
16450;SDS011;12243;42.708;23.310;2023-08-17T10:12:48;3.10;;;2.67;;
16450;SDS011;12243;42.708;23.310;2023-08-17T10:15:29;2.75;;;2.47;;
16450;SDS011;12243;42.708;23.310;2023-08-17T10:18:00;3.22;;;2.67;;
16450;SDS011;12243;42.708;23.310;2023-08-17T10:20:39;6.03;;;2.92;;
16450;SDS011;12243;42.708;23.310;2023-08-17T10:23:12;3.08;;;2.67;;
16450;SDS011;12243;42.708;23.310;2023-08-17T10:25:42;2.53;;;2.33;;
16450;SDS011;12243;42.708;23.310;2023-08-17T10:28:11;5.80;;;2.67;;
16450;SDS011;12243;42.708;23.310;2023-08-17T10:30:38;3.13;;;2.92;;
16450;SDS011;12243;42.708;23.310;2023-08-17T10:33:06;2.85;;;2.65;;
16450;SDS011;12243;42.708;23.310;2023-08-17T10:35:33;3.40;;;2.20;;
16450;SDS011;12243;42.708;23.310;2023-08-17T10:38:02;2.28;;;2.17;;
16450;SDS011;12243;42.708;23.310;2023-08-17T10:40:34;2.65;;;2.47;;
16450;SDS011;12243;42.708;23.310;2023-08-17T10:43:03;2.78;;;2.60;;
16450;SDS011;12243;42.708;23.310;2023-08-17T10:45:31;3.58;;;3.10;;
16450;SDS011;12243;42.708;23.310;2023-08-17T10:51:00;2.50;;;2.30;;
16450;SDS011;12243;42.708;23.310;2023-08-17T10:53:33;3.22;;;2.65;;
16450;SDS011;12243;42.708;23.310;2023-08-17T10:56:06;2.67;;;2.58;;
16450;SDS011;12243;42.708;23.310;2023-08-17T10:58:35;3.38;;;2.70;;
16450;SDS011;12243;42.708;23.310;2023-08-17T11:01:03;3.20;;;2.92;;
16450;SDS011;12243;42.708;23.310;2023-08-17T11:03:30;5.03;;;3.35;;
16450;SDS011;12243;42.708;23.310;2023-08-17T11:05:58;4.00;;;3.20;;
16450;SDS011;12243;42.708;23.310;2023-08-17T11:08:50;2.95;;;2.85;;
16450;SDS011;12243;42.708;23.310;2023-08-17T11:11:19;4.97;;;2.30;;
16450;SDS011;12243;42.708;23.310;2023-08-17T11:13:46;2.75;;;2.65;;
16450;SDS011;12243;42.708;23.310;2023-08-17T11:16:17;2.78;;;2.58;;
16450;SDS011;12243;42.708;23.310;2023-08-17T11:18:45;3.33;;;2.67;;
16450;SDS011;12243;42.708;23.310;2023-08-17T11:21:14;2.95;;;2.75;;
16450;SDS011;12243;42.708;23.310;2023-08-17T11:23:42;3.33;;;3.13;;
16450;SDS011;12243;42.708;23.310;2023-08-17T11:26:09;5.70;;;2.95;;
16450;SDS011;12243;42.708;23.310;2023-08-17T11:28:36;3.28;;;3.00;;
16450;SDS011;12243;42.708;23.310;2023-08-17T11:31:06;3.40;;;3.20;;
16450;SDS011;12243;42.708;23.310;2023-08-17T11:33:37;3.75;;;3.45;;
16450;SDS011;12243;42.708;23.310;2023-08-17T11:36:05;3.75;;;3.55;;
16450;SDS011;12243;42.708;23.310;2023-08-17T11:38:33;3.10;;;2.90;;
16450;SDS011;12243;42.708;23.310;2023-08-17T11:41:01;3.13;;;2.97;;
16450;SDS011;12243;42.708;23.310;2023-08-17T11:43:29;3.83;;;3.38;;
16450;SDS011;12243;42.708;23.310;2023-08-17T11:45:59;3.20;;;2.90;;
16450;SDS011;12243;42.708;23.310;2023-08-17T11:48:27;3.42;;;2.75;;
16450;SDS011;12243;42.708;23.310;2023-08-17T11:50:55;5.05;;;2.92;;
16450;SDS011;12243;42.708;23.310;2023-08-17T11:53:23;3.50;;;2.95;;
16450;SDS011;12243;42.708;23.310;2023-08-17T11:55:50;5.28;;;2.85;;
16450;SDS011;12243;42.708;23.310;2023-08-17T11:58:17;3.28;;;3.08;;
16450;SDS011;12243;42.708;23.310;2023-08-17T12:00:44;3.33;;;3.13;;
16450;SDS011;12243;42.708;23.310;2023-08-17T12:03:14;3.33;;;3.13;;
16450;SDS011;12243;42.708;23.310;2023-08-17T12:05:42;4.07;;;3.65;;
16450;SDS011;12243;42.708;23.310;2023-08-17T12:08:11;3.67;;;3.30;;
16450;SDS011;12243;42.708;23.310;2023-08-17T12:10:40;4.20;;;3.63;;
16450;SDS011;12243;42.708;23.310;2023-08-17T12:13:10;3.97;;;3.78;;
16450;SDS011;12243;42.708;23.310;2023-08-17T12:15:37;4.40;;;4.10;;
16450;SDS011;12243;42.708;23.310;2023-08-17T12:18:05;3.88;;;3.67;;
16450;SDS011;12243;42.708;23.310;2023-08-17T12:20:32;4.80;;;4.40;;
16450;SDS011;12243;42.708;23.310;2023-08-17T12:23:02;5.80;;;4.22;;
16450;SDS011;12243;42.708;23.310;2023-08-17T12:25:31;4.40;;;4.20;;
16450;SDS011;12243;42.708;23.310;2023-08-17T12:27:58;4.50;;;4.20;;
16450;SDS011;12243;42.708;23.310;2023-08-17T12:30:26;4.30;;;3.90;;
16450;SDS011;12243;42.708;23.310;2023-08-17T12:32:54;4.32;;;3.88;;
16450;SDS011;12243;42.708;23.310;2023-08-17T12:35:21;5.03;;;4.00;;
16450;SDS011;12243;42.708;23.310;2023-08-17T12:37:50;8.32;;;3.97;;
16450;SDS011;12243;42.708;23.310;2023-08-17T12:40:17;4.72;;;4.30;;
16450;SDS011;12243;42.708;23.310;2023-08-17T12:42:45;4.43;;;4.13;;
16450;SDS011;12243;42.708;23.310;2023-08-17T12:45:12;4.63;;;4.32;;
16450;SDS011;12243;42.708;23.310;2023-08-17T12:47:40;4.03;;;3.83;;
16450;SDS011;12243;42.708;23.310;2023-08-17T12:50:07;4.78;;;4.13;;
16450;SDS011;12243;42.708;23.310;2023-08-17T12:52:35;4.25;;;3.95;;
16450;SDS011;12243;42.708;23.310;2023-08-17T12:55:02;4.65;;;4.25;;
16450;SDS011;12243;42.708;23.310;2023-08-17T12:57:29;5.10;;;4.65;;
16450;SDS011;12243;42.708;23.310;2023-08-17T12:59:57;5.50;;;4.80;;
16450;SDS011;12243;42.708;23.310;2023-08-17T13:02:24;4.10;;;3.65;;
16450;SDS011;12243;42.708;23.310;2023-08-17T13:04:50;4.13;;;3.80;;
16450;SDS011;12243;42.708;23.310;2023-08-17T13:07:17;4.30;;;4.00;;
16450;SDS011;12243;42.708;23.310;2023-08-17T13:09:44;3.90;;;3.70;;
16450;SDS011;12243;42.708;23.310;2023-08-17T13:12:12;4.15;;;3.85;;
16450;SDS011;12243;42.708;23.310;2023-08-17T13:14:38;3.92;;;3.60;;
16450;SDS011;12243;42.708;23.310;2023-08-17T13:17:07;4.20;;;3.90;;
16450;SDS011;12243;42.708;23.310;2023-08-17T13:19:34;4.18;;;3.90;;
16450;SDS011;12243;42.708;23.310;2023-08-17T13:22:00;4.03;;;3.83;;
16450;SDS011;12243;42.708;23.310;2023-08-17T13:24:29;4.45;;;3.72;;
16450;SDS011;12243;42.708;23.310;2023-08-17T13:26:56;4.65;;;4.35;;
16450;SDS011;12243;42.708;23.310;2023-08-17T13:29:23;4.13;;;3.80;;
16450;SDS011;12243;42.708;23.310;2023-08-17T13:31:50;4.18;;;3.88;;
16450;SDS011;12243;42.708;23.310;2023-08-17T13:34:18;4.07;;;3.78;;
16450;SDS011;12243;42.708;23.310;2023-08-17T13:36:45;3.92;;;3.63;;
16450;SDS011;12243;42.708;23.310;2023-08-17T13:39:12;3.88;;;3.58;;
16450;SDS011;12243;42.708;23.310;2023-08-17T13:41:38;4.32;;;3.80;;
16450;SDS011;12243;42.708;23.310;2023-08-17T13:44:06;4.15;;;3.78;;
16450;SDS011;12243;42.708;23.310;2023-08-17T13:46:33;7.07;;;4.13;;
16450;SDS011;12243;42.708;23.310;2023-08-17T13:49:00;4.38;;;4.05;;
16450;SDS011;12243;42.708;23.310;2023-08-17T13:51:28;4.97;;;3.88;;
16450;SDS011;12243;42.708;23.310;2023-08-17T13:53:54;3.78;;;3.58;;
16450;SDS011;12243;42.708;23.310;2023-08-17T13:56:21;5.53;;;3.92;;
16450;SDS011;12243;42.708;23.310;2023-08-17T13:58:48;3.95;;;3.53;;
16450;SDS011;12243;42.708;23.310;2023-08-17T14:01:15;3.88;;;3.67;;
16450;SDS011;12243;42.708;23.310;2023-08-17T14:03:42;3.45;;;3.25;;
16450;SDS011;12243;42.708;23.310;2023-08-17T14:06:09;3.63;;;3.40;;
16450;SDS011;12243;42.708;23.310;2023-08-17T14:08:37;3.60;;;3.33;;
16450;SDS011;12243;42.708;23.310;2023-08-17T14:11:04;5.20;;;3.65;;
16450;SDS011;12243;42.708;23.310;2023-08-17T14:13:32;4.07;;;3.38;;
16450;SDS011;12243;42.708;23.310;2023-08-17T14:15:59;3.53;;;3.28;;
16450;SDS011;12243;42.708;23.310;2023-08-17T14:18:26;5.97;;;3.72;;
16450;SDS011;12243;42.708;23.310;2023-08-17T14:20:53;4.00;;;3.50;;
16450;SDS011;12243;42.708;23.310;2023-08-17T14:23:20;4.55;;;3.70;;
16450;SDS011;12243;42.708;23.310;2023-08-17T14:25:48;3.42;;;3.22;;
16450;SDS011;12243;42.708;23.310;2023-08-17T14:28:17;4.40;;;4.00;;
16450;SDS011;12243;42.708;23.310;2023-08-17T14:30:44;3.63;;;3.42;;
16450;SDS011;12243;42.708;23.310;2023-08-17T14:33:11;3.88;;;3.60;;
16450;SDS011;12243;42.708;23.310;2023-08-17T14:35:39;3.63;;;3.33;;
16450;SDS011;12243;42.708;23.310;2023-08-17T14:38:06;3.45;;;3.25;;
16450;SDS011;12243;42.708;23.310;2023-08-17T14:40:34;3.70;;;3.50;;